createdAt,value
2022-12-11T02:19:41.288Z,92.95
2022-12-11T02:23:03.585Z,92.31
2022-12-11T02:24:16.340Z,92.07
2022-12-11T02:25:25.893Z,91.99
2022-12-11T02:26:41.481Z,91.99
2022-12-11T02:27:48.071Z,91.81
2022-12-11T02:29:03.326Z,91.84
2022-12-11T02:30:10.049Z,91.74
2022-12-11T02:31:25.339Z,91.53
2022-12-11T02:32:52.860Z,91.43
2022-12-11T02:34:17.391Z,91.33
2022-12-11T02:35:32.709Z,91.15
2022-12-11T02:36:39.308Z,90.95
2022-12-11T02:37:44.861Z,90.88
2022-12-11T02:38:51.491Z,90.80
2022-12-11T02:39:55.891Z,90.54
2022-12-11T02:41:01.235Z,90.37
2022-12-11T02:42:05.312Z,90.42
2022-12-11T02:43:11.534Z,90.24
2022-12-11T02:44:17.216Z,90.23
2022-12-11T02:45:22.893Z,89.95
2022-12-11T02:46:27.150Z,89.91
2022-12-11T02:47:32.785Z,89.69
2022-12-11T02:48:37.545Z,89.65
2022-12-11T02:49:44.169Z,89.54
2022-12-11T02:50:50.431Z,89.40
2022-12-11T02:51:55.791Z,89.23
2022-12-11T02:53:01.531Z,89.29
2022-12-11T02:54:08.172Z,89.10
2022-12-11T02:55:14.320Z,88.79
2022-12-11T02:56:21.023Z,88.69
2022-12-11T02:57:27.642Z,88.54
2022-12-11T02:58:33.398Z,88.54
2022-12-11T02:59:40.241Z,88.37
2022-12-11T03:00:45.008Z,88.26
2022-12-11T03:01:48.138Z,88.19
2022-12-11T03:02:51.433Z,88.18
2022-12-11T03:03:55.837Z,88.07
2022-12-11T03:04:59.277Z,88.06
2022-12-11T03:06:03.433Z,87.80
2022-12-11T03:07:16.506Z,87.67
2022-12-11T03:08:19.596Z,87.75
2022-12-11T03:09:22.693Z,87.62
2022-12-11T03:10:26.013Z,87.43
2022-12-11T03:11:29.193Z,87.33
2022-12-11T03:12:35.660Z,87.32
2022-12-11T03:13:41.996Z,87.05
2022-12-11T03:14:45.166Z,86.93
2022-12-11T03:16:17.538Z,86.88
2022-12-11T03:17:27.137Z,86.68
2022-12-11T03:20:14.762Z,86.50
2022-12-11T03:21:24.063Z,86.46
2022-12-11T03:22:42.561Z,86.44
2022-12-11T03:24:04.053Z,86.45
2022-12-11T03:25:10.855Z,86.26
2022-12-11T03:26:16.615Z,86.20
2022-12-11T03:27:32.300Z,86.14
2022-12-11T03:28:38.807Z,85.95
2022-12-11T03:29:45.401Z,85.81
2022-12-11T03:30:51.607Z,85.69
2022-12-11T03:31:58.160Z,85.68
2022-12-11T03:33:07.569Z,85.49
2022-12-11T03:34:20.287Z,85.36
2022-12-11T03:35:41.854Z,85.37
2022-12-11T03:36:47.214Z,85.15
2022-12-11T03:37:52.865Z,85.05
2022-12-11T03:39:08.505Z,85.01
2022-12-11T03:40:15.554Z,85.05
2022-12-11T03:41:21.839Z,84.92
2022-12-11T03:42:26.676Z,84.87
2022-12-11T03:43:31.464Z,84.85
2022-12-11T03:44:36.139Z,84.59
2022-12-11T03:45:41.113Z,84.44
2022-12-11T03:46:46.451Z,84.29
2022-12-11T03:47:51.501Z,84.12
2022-12-11T03:48:58.001Z,84.03
2022-12-11T03:50:03.727Z,84.00
2022-12-11T03:51:07.570Z,83.87
2022-12-11T03:52:14.217Z,83.82
2022-12-11T03:53:18.874Z,83.68
2022-12-11T03:54:23.038Z,83.52
2022-12-11T03:55:27.626Z,83.23
2022-12-11T03:56:33.044Z,83.11
2022-12-11T03:57:37.597Z,83.05
2022-12-11T03:58:40.558Z,83.11
2022-12-11T03:59:43.694Z,82.94
2022-12-11T04:00:46.645Z,82.87
2022-12-11T04:01:50.057Z,82.72
2022-12-11T04:03:13.828Z,82.33
2022-12-11T04:04:16.918Z,82.33
2022-12-11T04:05:20.005Z,82.33
2022-12-11T04:06:23.054Z,82.42
2022-12-11T04:07:26.099Z,82.26
2022-12-11T04:08:29.058Z,82.34
2022-12-11T04:09:32.271Z,82.17
2022-12-11T04:10:35.416Z,82.10
2022-12-11T04:11:38.986Z,82.00
2022-12-11T04:12:42.030Z,81.87
2022-12-11T04:13:45.152Z,81.83
2022-12-11T04:15:03.230Z,81.63
2022-12-11T04:16:07.040Z,81.59
2022-12-11T04:17:10.131Z,81.50
2022-12-11T04:18:31.533Z,81.47
2022-12-11T04:19:53.868Z,81.37
2022-12-11T04:21:15.295Z,81.24
2022-12-11T04:22:37.210Z,81.27
2022-12-11T04:23:58.778Z,81.01
2022-12-11T04:25:03.448Z,80.81
2022-12-11T04:26:12.835Z,80.81
2022-12-11T04:27:21.101Z,80.64
2022-12-11T04:28:24.180Z,80.52
2022-12-11T04:29:27.157Z,80.54
2022-12-11T04:30:34.171Z,80.33
2022-12-11T04:31:35.567Z,80.27
2022-12-11T04:32:38.590Z,80.22
2022-12-11T04:33:42.060Z,80.16
2022-12-11T04:34:45.131Z,80.11
2022-12-11T04:35:48.323Z,80.05
2022-12-11T04:36:51.574Z,80.02
2022-12-11T04:37:54.742Z,80.01
2022-12-11T04:38:57.685Z,80.07
2022-12-11T04:40:00.631Z,79.89
2022-12-11T04:41:07.138Z,79.90
2022-12-11T04:42:10.322Z,79.82
2022-12-11T04:43:13.446Z,79.71
2022-12-11T04:44:16.383Z,79.62
2022-12-11T04:45:19.563Z,79.37
2022-12-11T04:46:24.065Z,79.31
2022-12-11T04:47:27.186Z,79.13
2022-12-11T04:48:30.333Z,79.17
2022-12-11T04:49:33.430Z,78.94
2022-12-11T04:50:36.567Z,78.94
2022-12-11T04:51:39.621Z,78.91
2022-12-11T04:52:43.232Z,79.01
2022-12-11T04:53:46.497Z,78.78
2022-12-11T04:54:50.932Z,78.67
2022-12-11T04:55:54.841Z,78.61
2022-12-11T04:56:57.979Z,78.59
2022-12-11T04:58:01.123Z,78.51
2022-12-11T04:59:04.143Z,78.23
2022-12-11T05:00:09.520Z,78.13
2022-12-11T05:01:15.408Z,78.20
2022-12-11T05:02:18.542Z,78.12
2022-12-11T05:03:22.773Z,77.98
2022-12-11T05:04:27.707Z,77.80
2022-12-11T05:05:30.663Z,77.75
2022-12-11T05:06:33.812Z,77.63
2022-12-11T05:07:38.315Z,77.63
2022-12-11T05:08:42.352Z,77.50
2022-12-11T05:09:45.390Z,77.46
2022-12-11T05:11:03.164Z,77.44
2022-12-11T05:12:06.230Z,77.46
2022-12-11T05:13:09.152Z,77.28
2022-12-11T05:14:12.339Z,77.38
2022-12-11T05:15:15.402Z,77.28
2022-12-11T05:16:18.801Z,77.31
2022-12-11T05:17:22.381Z,77.27
2022-12-11T05:18:25.910Z,77.14
2022-12-11T05:19:28.947Z,77.06
2022-12-11T05:20:31.873Z,77.10
2022-12-11T05:21:35.441Z,76.92
2022-12-11T05:22:38.564Z,77.00
2022-12-11T05:23:41.892Z,76.90
2022-12-11T05:24:45.138Z,77.03
2022-12-11T05:25:53.020Z,77.00
2022-12-11T05:26:56.509Z,76.91
2022-12-11T05:27:59.647Z,77.11
2022-12-11T05:29:02.887Z,77.04
2022-12-11T05:30:06.853Z,76.95
2022-12-11T05:31:18.452Z,76.80
2022-12-11T05:32:21.581Z,76.91
2022-12-11T05:33:25.511Z,76.79
2022-12-11T05:34:28.568Z,76.74
2022-12-11T05:35:31.601Z,76.76
2022-12-11T05:36:34.633Z,76.75
2022-12-11T05:37:37.608Z,76.88
2022-12-11T05:38:40.537Z,76.79
2022-12-11T05:39:43.466Z,76.69
2022-12-11T05:41:02.090Z,76.62
2022-12-11T05:42:05.266Z,76.74
2022-12-11T05:43:08.347Z,76.75
2022-12-11T05:44:12.713Z,76.63
2022-12-11T05:45:15.898Z,76.69
2022-12-11T05:46:24.436Z,76.62
2022-12-11T05:47:27.480Z,76.53
2022-12-11T05:48:30.530Z,76.48
2022-12-11T05:49:33.704Z,76.36
2022-12-11T05:50:37.164Z,76.32
2022-12-11T05:51:43.229Z,76.24
2022-12-11T05:52:46.345Z,76.36
2022-12-11T05:53:51.315Z,76.26
2022-12-11T05:54:54.500Z,76.17
2022-12-11T05:56:04.755Z,76.06
2022-12-11T05:57:07.881Z,76.11
2022-12-11T05:58:11.107Z,76.18
2022-12-11T05:59:14.396Z,76.29
2022-12-11T06:00:17.583Z,76.12
2022-12-11T06:01:29.621Z,75.99
2022-12-11T06:02:34.982Z,75.96
2022-12-11T06:03:38.401Z,75.87
2022-12-11T06:04:41.562Z,75.78
2022-12-11T06:05:44.628Z,75.84
2022-12-11T06:06:47.997Z,75.71
2022-12-11T06:07:51.201Z,75.76
2022-12-11T06:08:55.950Z,75.72
2022-12-11T06:09:59.031Z,75.60
2022-12-11T06:11:02.289Z,75.71
2022-12-11T06:12:05.562Z,75.63
2022-12-11T06:13:08.698Z,75.44
2022-12-11T06:14:12.288Z,75.27
2022-12-11T06:15:15.424Z,75.34
2022-12-11T06:16:18.709Z,75.19
2022-12-11T06:17:21.780Z,75.14
2022-12-11T06:18:24.942Z,75.21
2022-12-11T06:19:31.911Z,75.01
2022-12-11T06:20:34.106Z,74.98
2022-12-11T06:21:37.275Z,74.81
2022-12-11T06:22:40.868Z,74.91
2022-12-11T06:23:45.482Z,74.88
2022-12-11T06:24:48.706Z,74.78
2022-12-11T06:25:51.822Z,74.67
2022-12-11T06:26:54.752Z,74.62
2022-12-11T06:27:57.783Z,74.52
2022-12-11T06:29:00.881Z,74.61
2022-12-11T06:30:04.377Z,74.51
2022-12-11T06:31:07.524Z,74.47
2022-12-11T06:32:10.653Z,74.35
2022-12-11T06:33:13.680Z,74.30
2022-12-11T06:34:16.597Z,74.35
2022-12-11T06:35:19.634Z,74.15
2022-12-11T06:36:24.767Z,74.05
2022-12-11T06:37:27.953Z,73.96
2022-12-11T06:38:31.379Z,73.87
2022-12-11T06:39:34.315Z,73.81
2022-12-11T06:40:37.728Z,73.64
2022-12-11T06:41:40.770Z,73.54
2022-12-11T06:42:43.802Z,73.57
2022-12-11T06:43:46.852Z,73.58
2022-12-11T06:44:49.911Z,73.65
2022-12-11T06:45:53.056Z,73.45
2022-12-11T06:46:56.471Z,73.28
2022-12-11T06:47:59.499Z,73.13
2022-12-11T06:49:02.538Z,73.11
2022-12-11T06:50:06.273Z,73.11
2022-12-11T06:51:12.639Z,73.01
2022-12-11T06:52:18.604Z,73.05
2022-12-11T06:53:20.832Z,72.92
2022-12-11T06:54:27.481Z,72.94
2022-12-11T06:55:30.442Z,72.87
2022-12-11T06:56:34.935Z,72.77
2022-12-11T06:57:37.997Z,72.75
2022-12-11T06:58:42.340Z,72.72
2022-12-11T06:59:45.608Z,72.73
2022-12-11T07:00:48.584Z,72.61
2022-12-11T07:01:51.781Z,72.54
2022-12-11T07:02:54.954Z,72.36
2022-12-11T07:03:59.481Z,72.28
2022-12-11T07:05:02.814Z,72.17
2022-12-11T07:06:06.170Z,72.05
2022-12-11T07:07:09.611Z,71.96
2022-12-11T07:08:12.700Z,71.88
2022-12-11T07:09:15.833Z,71.88
2022-12-11T07:10:18.963Z,71.80
2022-12-11T07:11:22.139Z,71.77
2022-12-11T07:12:25.330Z,71.74
2022-12-11T07:13:28.473Z,71.72
2022-12-11T07:14:32.036Z,71.58
2022-12-11T07:15:40.215Z,71.68
2022-12-11T07:16:41.142Z,71.68
2022-12-11T07:17:44.282Z,71.64
2022-12-11T07:18:49.503Z,71.53
2022-12-11T07:19:52.571Z,71.38
2022-12-11T07:20:58.698Z,71.43
2022-12-11T10:28:20.079Z,71.18
2022-12-11T10:29:23.518Z,70.93
2022-12-11T10:30:34.476Z,70.80
2022-12-11T10:31:39.369Z,70.70
2022-12-11T10:33:03.428Z,70.63
2022-12-11T10:35:41.621Z,70.61
2022-12-11T10:36:44.793Z,70.40
2022-12-11T10:37:47.831Z,70.28
2022-12-11T10:38:50.988Z,70.10
2022-12-11T10:39:54.038Z,69.95
2022-12-11T10:41:06.887Z,69.84
2022-12-11T10:42:13.422Z,69.78
2022-12-11T10:43:16.476Z,69.52
2022-12-11T10:44:22.250Z,69.42
2022-12-11T10:45:25.526Z,69.19
2022-12-11T10:46:31.665Z,68.99
2022-12-11T10:47:34.727Z,68.85
2022-12-11T10:48:53.327Z,68.62
2022-12-11T10:50:02.273Z,68.48
2022-12-11T10:51:09.400Z,68.28
2022-12-11T10:52:14.753Z,68.10
2022-12-11T10:53:20.817Z,67.97
2022-12-11T10:54:39.137Z,67.90
2022-12-11T10:55:47.181Z,67.72
2022-12-11T10:57:13.673Z,67.59
2022-12-11T10:58:28.115Z,67.37
2022-12-11T10:59:39.581Z,67.13
2022-12-11T11:00:42.709Z,67.03
2022-12-11T11:03:26.256Z,66.86
2022-12-11T11:04:37.607Z,66.65
2022-12-11T11:05:47.735Z,66.58
2022-12-11T11:06:49.257Z,66.46
2022-12-11T11:08:05.051Z,66.35
2022-12-11T11:09:29.645Z,66.18
2022-12-11T11:10:32.830Z,66.04
2022-12-11T11:11:38.802Z,65.74
2022-12-11T11:12:45.041Z,65.64
2022-12-11T11:13:48.771Z,65.66
2022-12-11T11:15:03.947Z,65.39
2022-12-11T11:16:10.386Z,65.24
2022-12-11T11:17:16.240Z,65.16
2022-12-11T11:18:27.021Z,65.12
2022-12-11T11:19:35.872Z,64.83
2022-12-11T11:20:42.548Z,64.63
2022-12-11T11:21:58.097Z,64.45
2022-12-11T11:23:04.359Z,64.33
2022-12-11T11:24:11.071Z,64.28
2022-12-11T11:25:20.489Z,64.14
2022-12-11T11:26:34.182Z,64.05
2022-12-11T11:27:32.823Z,63.99
2022-12-11T11:28:39.277Z,63.81
2022-12-11T11:29:47.675Z,63.74
2022-12-11T11:30:58.791Z,63.65
2022-12-11T11:32:05.560Z,63.67
2022-12-11T11:33:20.539Z,63.55
2022-12-11T11:34:25.549Z,63.47
2022-12-11T11:35:30.827Z,63.34
2022-12-11T11:36:36.024Z,63.12
2022-12-11T11:37:42.018Z,63.04
2022-12-11T11:38:48.676Z,62.81
2022-12-11T11:39:55.597Z,62.69
2022-12-11T11:41:21.140Z,62.65
2022-12-11T11:42:29.280Z,62.58
2022-12-11T11:43:45.895Z,62.49
2022-12-11T11:44:52.644Z,62.51
2022-12-11T11:45:59.475Z,62.50
2022-12-11T11:47:06.218Z,62.41
2022-12-11T11:48:30.888Z,62.32
2022-12-11T11:49:58.964Z,62.34
2022-12-11T11:51:17.360Z,62.23
2022-12-11T11:52:32.527Z,62.26
2022-12-11T11:53:40.731Z,62.24
2022-12-11T11:55:07.622Z,62.11
2022-12-11T11:56:30.957Z,62.11
2022-12-11T11:57:49.617Z,61.92
2022-12-11T11:59:08.724Z,61.87
2022-12-11T12:00:20.108Z,61.72
2022-12-11T12:01:23.947Z,61.68
2022-12-11T12:02:27.747Z,61.60
2022-12-11T12:03:31.214Z,61.62
2022-12-11T12:04:35.630Z,61.68
2022-12-11T12:05:58.702Z,61.59
2022-12-11T12:07:08.450Z,61.48
2022-12-11T12:08:31.717Z,61.46
2022-12-11T12:09:47.882Z,61.54
2022-12-11T12:11:03.716Z,61.44
2022-12-11T12:12:36.467Z,61.33
2022-12-11T12:13:52.355Z,61.41
2022-12-11T12:15:08.399Z,61.44
2022-12-11T12:16:51.497Z,61.34
2022-12-11T12:17:55.169Z,61.39
2022-12-11T12:19:04.812Z,61.31
2022-12-11T12:20:17.679Z,61.34
2022-12-11T12:21:38.538Z,61.39
2022-12-11T12:22:49.090Z,61.46
2022-12-11T12:24:10.313Z,61.44
2022-12-11T12:25:25.925Z,61.49
2022-12-11T12:26:35.868Z,61.61
2022-12-11T12:27:54.612Z,61.70
2022-12-11T12:29:26.661Z,61.75
2022-12-11T12:30:33.342Z,61.95
2022-12-11T12:31:45.698Z,62.00
2022-12-11T12:32:55.491Z,62.00
2022-12-11T12:34:23.517Z,62.09
2022-12-11T12:35:35.968Z,62.13
2022-12-11T12:36:43.104Z,62.23
2022-12-11T12:38:01.382Z,62.32
2022-12-11T12:39:14.132Z,62.31
2022-12-11T12:40:24.213Z,62.36
2022-12-11T12:41:48.294Z,62.43
2022-12-11T12:43:15.794Z,62.60
2022-12-11T12:44:21.797Z,62.60
2022-12-11T12:45:49.638Z,62.60
2022-12-11T12:46:59.273Z,62.68
2022-12-11T12:48:02.491Z,62.80
2022-12-11T12:49:08.999Z,62.95
2022-12-11T12:50:18.932Z,62.94
2022-12-11T12:51:22.621Z,62.99
2022-12-11T12:52:34.671Z,63.03
2022-12-11T12:53:38.060Z,63.06
2022-12-11T12:54:45.911Z,63.10
2022-12-11T12:55:49.887Z,63.21
2022-12-11T12:56:53.455Z,63.14
2022-12-11T12:58:00.008Z,63.16
2022-12-11T12:59:03.277Z,63.21
2022-12-11T13:00:12.871Z,63.28
2022-12-11T13:01:19.205Z,63.28
2022-12-11T13:02:22.549Z,63.36
2022-12-11T13:03:29.784Z,63.36
2022-12-11T13:04:55.602Z,63.38
2022-12-11T13:05:47.330Z,63.50
2022-12-11T13:06:50.622Z,63.50
2022-12-11T13:07:56.984Z,63.53
2022-12-11T13:09:12.915Z,63.56
2022-12-11T13:10:34.483Z,63.66
2022-12-11T13:11:37.562Z,63.74
2022-12-11T13:12:45.971Z,63.64
2022-12-11T13:14:07.398Z,63.69
2022-12-11T13:15:34.009Z,63.81
2022-12-11T13:16:39.651Z,63.68
2022-12-11T13:17:42.824Z,63.77
2022-12-11T13:18:47.916Z,63.77
2022-12-11T13:19:56.429Z,63.79
2022-12-11T13:21:00.117Z,63.92
2022-12-11T13:22:15.669Z,63.86
2022-12-11T13:23:28.240Z,63.94
2022-12-11T13:24:32.980Z,63.83
2022-12-11T13:25:51.857Z,63.90
2022-12-11T13:26:55.424Z,64.06
2022-12-11T13:28:11.685Z,64.05
2022-12-11T13:29:41.158Z,64.08
2022-12-11T13:30:44.413Z,64.08
2022-12-11T13:31:51.120Z,64.11
2022-12-11T13:33:10.113Z,64.14
2022-12-11T13:34:19.536Z,64.16
2022-12-11T13:35:22.879Z,64.19
2022-12-11T13:36:32.145Z,64.18
2022-12-11T13:37:43.783Z,64.29
2022-12-11T13:39:02.282Z,64.21
2022-12-11T13:40:09.614Z,64.18
2022-12-11T13:41:13.408Z,64.22
2022-12-11T13:42:33.326Z,64.26
2022-12-11T13:43:39.211Z,64.27
2022-12-11T13:44:44.381Z,64.37
2022-12-11T13:45:50.590Z,64.41
2022-12-11T13:46:56.875Z,64.46
2022-12-11T13:48:00.776Z,64.36
2022-12-11T13:49:06.382Z,64.46
2022-12-11T13:50:16.025Z,64.35
2022-12-11T13:51:22.106Z,64.37
2022-12-11T13:52:27.108Z,64.33
2022-12-11T13:53:30.313Z,64.32
2022-12-11T13:54:37.285Z,64.37
2022-12-11T13:55:40.322Z,64.41
2022-12-11T13:56:59.458Z,64.37
2022-12-11T13:58:02.545Z,64.37
2022-12-11T13:59:05.576Z,64.51
2022-12-11T14:00:21.600Z,64.46
2022-12-11T14:01:28.313Z,64.41
2022-12-11T14:02:38.245Z,64.54
2022-12-11T14:04:03.135Z,64.42
2022-12-11T14:05:10.626Z,64.37
2022-12-11T14:06:18.619Z,64.44
2022-12-11T14:07:34.557Z,64.58
2022-12-11T14:08:41.272Z,64.59
2022-12-11T14:09:45.586Z,64.56
2022-12-11T14:10:55.051Z,64.57
2022-12-11T14:11:58.734Z,64.56
2022-12-11T14:13:05.244Z,64.52
2022-12-11T14:14:17.577Z,64.59
2022-12-11T14:15:21.346Z,64.57
2022-12-11T14:16:26.658Z,64.54
2022-12-11T14:17:32.477Z,64.52
2022-12-11T14:18:36.743Z,64.58
2022-12-11T14:19:40.059Z,64.66
2022-12-11T14:20:43.199Z,64.55
2022-12-11T14:22:03.449Z,64.55
2022-12-11T14:23:10.081Z,64.49
2022-12-11T14:24:13.740Z,64.52
2022-12-11T14:25:24.252Z,64.65
2022-12-11T14:26:31.882Z,64.59
2022-12-11T14:27:34.904Z,64.49
2022-12-11T14:28:40.465Z,64.53
2022-12-11T14:29:43.703Z,64.60
2022-12-11T14:30:51.693Z,64.62
2022-12-11T14:31:56.040Z,64.73
2022-12-11T14:33:02.659Z,64.68
2022-12-11T14:34:15.396Z,64.61
2022-12-11T14:35:27.975Z,64.61
2022-12-11T14:36:32.862Z,64.59
2022-12-11T14:37:36.714Z,64.68
2022-12-11T14:38:46.360Z,64.60
2022-12-11T14:40:06.794Z,64.64
2022-12-11T14:41:19.553Z,64.65
2022-12-11T14:42:26.391Z,64.67
2022-12-11T14:43:39.393Z,64.61
2022-12-11T14:44:52.018Z,64.69
2022-12-11T14:45:58.782Z,64.70
2022-12-11T14:47:05.255Z,64.69
2022-12-11T14:48:11.920Z,64.67
2022-12-11T14:49:30.728Z,64.65
2022-12-11T14:50:37.506Z,64.58
2022-12-11T14:51:41.339Z,64.64
2022-12-11T14:52:47.874Z,64.67
2022-12-11T14:53:53.234Z,64.77
2022-12-11T14:54:59.889Z,64.75
2022-12-11T14:56:06.060Z,64.60
2022-12-11T14:57:15.644Z,64.70
2022-12-11T14:58:25.866Z,64.73
2022-12-11T14:59:32.280Z,64.67
2022-12-11T15:00:37.276Z,64.84
2022-12-11T15:01:40.558Z,64.81
2022-12-11T15:02:43.719Z,64.94
2022-12-11T15:03:46.950Z,64.89
2022-12-11T15:05:17.638Z,64.87
2022-12-11T15:06:33.143Z,64.87
2022-12-11T15:07:36.813Z,64.85
2022-12-11T15:08:39.900Z,64.83
2022-12-11T15:09:46.057Z,64.82
2022-12-11T15:11:13.897Z,64.86
2022-12-11T15:12:19.078Z,64.83
2022-12-11T15:13:24.964Z,64.85
2022-12-11T15:14:29.065Z,64.91
2022-12-11T15:15:45.101Z,64.80
2022-12-11T15:16:50.321Z,64.95
2022-12-11T15:17:53.717Z,64.90
2022-12-11T15:18:58.278Z,64.88
2022-12-11T15:20:07.830Z,65.00
2022-12-11T15:21:12.216Z,65.02
2022-12-11T15:22:16.996Z,65.03
2022-12-11T15:23:21.606Z,65.05
2022-12-11T15:24:28.134Z,65.10
2022-12-11T15:25:31.993Z,65.12
2022-12-11T15:26:40.915Z,65.21
2022-12-11T15:27:44.266Z,65.15
2022-12-11T15:28:47.386Z,65.24
2022-12-11T15:29:50.434Z,65.15
2022-12-11T15:30:57.433Z,65.15
2022-12-11T15:32:06.480Z,65.17
2022-12-11T15:33:13.120Z,65.27
2022-12-11T15:34:23.246Z,65.40
2022-12-11T15:35:27.646Z,65.36
2022-12-11T15:36:34.622Z,65.30
2022-12-11T15:37:39.549Z,65.30
2022-12-11T15:38:42.950Z,65.39
2022-12-11T15:39:46.339Z,65.43
2022-12-11T15:40:49.622Z,65.49
2022-12-11T15:41:52.829Z,65.47
2022-12-11T15:42:57.111Z,65.66
2022-12-11T15:44:03.490Z,65.64
2022-12-11T15:45:08.980Z,65.80
2022-12-11T15:46:12.783Z,65.76
2022-12-11T15:47:19.468Z,65.91
2022-12-11T15:48:23.238Z,65.86
2022-12-11T15:49:26.542Z,65.98
2022-12-11T15:50:30.040Z,66.02
2022-12-11T15:51:39.715Z,66.00
2022-12-11T15:52:39.348Z,65.88
2022-12-11T15:53:42.704Z,65.91
2022-12-11T15:54:45.941Z,66.06
2022-12-11T15:55:49.234Z,66.03
2022-12-11T15:56:52.542Z,66.07
2022-12-11T15:57:59.266Z,66.11
2022-12-11T15:59:06.294Z,66.12
2022-12-11T16:00:15.241Z,66.17
2022-12-11T16:01:18.481Z,66.35
2022-12-11T16:02:23.526Z,66.35
2022-12-11T16:03:26.763Z,66.38
2022-12-11T16:04:30.021Z,66.26
2022-12-11T16:05:33.085Z,66.45
2022-12-11T16:06:36.415Z,66.32
2022-12-11T16:07:39.601Z,66.38
2022-12-11T16:08:42.778Z,66.42
2022-12-11T16:09:46.658Z,66.49
2022-12-11T16:10:53.005Z,66.50
2022-12-11T16:11:56.249Z,66.53
2022-12-11T16:12:59.779Z,66.63
2022-12-11T16:14:03.844Z,66.75
2022-12-11T16:15:07.732Z,66.71
2022-12-11T16:16:11.226Z,66.79
2022-12-11T16:17:15.403Z,66.83
2022-12-11T16:18:21.909Z,66.76
2022-12-11T19:54:50.526Z,76.43
2022-12-11T19:55:54.031Z,76.18
2022-12-11T19:56:57.323Z,75.92
2022-12-11T19:58:00.501Z,75.81
2022-12-11T19:59:06.312Z,75.63
2022-12-11T20:00:11.184Z,75.64
2022-12-11T20:02:34.949Z,75.35
2022-12-11T20:03:38.031Z,75.12
2022-12-11T20:04:41.023Z,75.06
2022-12-11T20:05:44.128Z,75.00
2022-12-11T20:06:47.881Z,74.77
2022-12-11T20:07:51.835Z,74.68
2022-12-11T20:08:55.311Z,74.66
2022-12-11T20:09:59.861Z,74.39
2022-12-11T20:11:06.682Z,74.36
2022-12-11T20:12:11.952Z,74.09
2022-12-11T20:13:15.532Z,74.00
2022-12-11T20:14:24.316Z,73.92
2022-12-11T20:15:27.844Z,73.92
2022-12-11T20:17:01.555Z,73.67
2022-12-11T20:17:37.406Z,73.60
2022-12-11T20:18:41.083Z,73.44
2022-12-11T20:19:44.274Z,73.23
2022-12-11T20:20:47.679Z,73.12
2022-12-11T20:21:50.826Z,72.96
2022-12-11T20:22:55.892Z,72.88
2022-12-11T20:24:01.495Z,72.78
2022-12-11T20:25:05.087Z,72.78
2022-12-11T20:26:12.752Z,72.71
2022-12-11T20:27:15.739Z,72.58
2022-12-11T20:28:18.951Z,72.53
2022-12-11T20:29:22.315Z,72.32
2022-12-11T20:30:26.242Z,72.03
2022-12-11T20:31:29.449Z,71.94
2022-12-11T20:32:33.633Z,71.83
2022-12-11T20:33:36.971Z,71.62
2022-12-11T20:34:40.749Z,71.55
2022-12-11T20:35:44.452Z,71.60
2022-12-11T20:36:48.301Z,71.51
2022-12-11T20:37:51.442Z,71.46
2022-12-11T20:38:54.628Z,71.25
2022-12-11T20:39:57.754Z,71.25
2022-12-11T20:41:00.924Z,71.03
2022-12-11T20:42:04.508Z,70.85
2022-12-11T20:43:07.905Z,70.80
2022-12-11T20:44:10.981Z,70.58
2022-12-11T20:45:14.445Z,70.45
2022-12-11T20:46:18.035Z,70.37
2022-12-11T20:47:21.201Z,70.33
2022-12-11T20:48:24.428Z,70.10
2022-12-11T20:49:27.745Z,70.03
2022-12-11T20:50:31.827Z,69.99
2022-12-11T20:51:35.071Z,69.81
2022-12-11T20:52:38.314Z,69.71
2022-12-11T20:53:42.340Z,69.57
2022-12-11T20:54:46.015Z,69.46
2022-12-11T20:55:49.132Z,69.34
2022-12-11T20:56:52.400Z,69.22
2022-12-11T20:57:55.694Z,69.22
2022-12-11T20:59:00.149Z,69.03
2022-12-11T21:00:05.010Z,68.95
2022-12-11T21:01:17.008Z,68.89
2022-12-11T21:02:20.527Z,68.89
2022-12-11T21:03:23.694Z,68.67
2022-12-11T21:04:27.076Z,68.57
2022-12-11T21:05:30.672Z,68.49
2022-12-11T21:06:36.076Z,68.49
2022-12-11T21:07:39.288Z,68.29
2022-12-11T21:08:42.491Z,68.30
2022-12-11T21:09:45.811Z,68.19
2022-12-11T21:10:49.094Z,68.17
2022-12-11T21:11:52.958Z,68.11
2022-12-11T21:12:56.163Z,68.21
2022-12-11T21:13:59.604Z,68.12
2022-12-11T21:15:02.961Z,68.08
2022-12-11T21:16:08.134Z,68.04
2022-12-11T21:17:11.332Z,67.93
2022-12-11T21:18:14.925Z,67.94
2022-12-11T21:19:18.844Z,67.89
2022-12-11T21:20:22.220Z,67.85
2022-12-11T21:21:26.432Z,67.89
2022-12-11T21:22:29.690Z,67.80
2022-12-11T21:23:33.502Z,67.63
2022-12-11T21:24:36.815Z,67.65
2022-12-11T21:25:40.297Z,67.42
2022-12-11T21:26:43.812Z,67.44
2022-12-11T21:27:47.996Z,67.42
2022-12-11T21:28:51.758Z,67.25
2022-12-11T21:29:55.090Z,67.33
2022-12-11T21:31:02.967Z,67.20
2022-12-11T21:32:06.279Z,67.34
2022-12-11T21:33:09.544Z,67.20
2022-12-11T21:34:13.428Z,67.15
2022-12-11T21:35:16.545Z,67.19
2022-12-11T21:36:19.630Z,67.06
2022-12-11T21:37:23.072Z,67.03
2022-12-11T21:38:27.378Z,67.03
2022-12-11T21:39:34.745Z,67.01
2022-12-11T21:40:35.934Z,67.12
2022-12-11T21:41:40.576Z,67.01
2022-12-11T21:42:43.673Z,67.06
2022-12-11T21:45:14.459Z,66.99
2022-12-11T21:45:58.801Z,66.99
2022-12-11T21:46:01.558Z,67.00
2022-12-11T21:47:04.654Z,67.09
2022-12-11T21:48:07.856Z,66.99
2022-12-11T21:49:11.502Z,66.95
2022-12-11T21:50:14.470Z,67.06
2022-12-11T21:51:20.511Z,67.11
2022-12-11T21:52:23.626Z,66.94
2022-12-11T21:53:26.653Z,66.92
2022-12-11T21:54:29.847Z,66.98
2022-12-11T21:55:33.078Z,67.06
2022-12-11T21:56:36.155Z,67.01
2022-12-11T21:57:39.729Z,67.08
2022-12-11T21:58:43.463Z,67.06
2022-12-11T21:59:46.633Z,66.94
2022-12-11T22:00:49.815Z,67.11
2022-12-11T22:01:52.988Z,67.05
2022-12-11T22:02:56.233Z,67.11
2022-12-11T22:04:00.025Z,67.21
2022-12-11T22:05:04.757Z,67.05
2022-12-11T22:06:08.134Z,66.98
2022-12-11T22:07:11.199Z,66.98
2022-12-11T22:08:15.220Z,66.99
2022-12-11T22:09:18.416Z,67.01
2022-12-11T22:10:21.615Z,67.07
2022-12-11T22:11:27.950Z,67.08
2022-12-11T22:12:30.958Z,67.17
2022-12-11T22:13:33.938Z,67.06
2022-12-11T22:14:36.984Z,66.97
2022-12-11T22:15:40.187Z,67.03
2022-12-11T22:16:44.425Z,67.01
2022-12-11T22:17:48.573Z,67.00
2022-12-11T22:18:51.782Z,67.03
2022-12-11T22:19:54.963Z,67.19
2022-12-11T22:20:58.278Z,67.11
2022-12-11T22:22:01.447Z,67.10
2022-12-11T22:23:04.621Z,67.08
2022-12-11T22:24:07.981Z,67.14
2022-12-11T22:25:11.522Z,67.10
2022-12-11T22:26:18.619Z,67.10
2022-12-11T22:27:23.928Z,67.19
2022-12-11T22:28:26.801Z,67.14
2022-12-11T22:29:30.090Z,67.25
2022-12-11T22:30:33.437Z,67.19
2022-12-11T22:31:36.582Z,67.25
2022-12-11T22:32:39.949Z,67.25
2022-12-11T22:33:43.133Z,67.21
2022-12-11T22:34:46.302Z,67.29
2022-12-11T22:35:59.017Z,67.15
2022-12-11T22:37:02.333Z,67.22
2022-12-11T22:38:06.031Z,67.28
2022-12-11T22:39:09.225Z,67.41
2022-12-11T23:25:28.840Z,71.05
2022-12-11T23:26:32.435Z,70.95
2022-12-11T23:27:35.664Z,70.76
2022-12-11T23:28:39.258Z,70.69
2022-12-11T23:29:42.481Z,70.71
2022-12-11T23:30:45.691Z,70.78
2022-12-11T23:31:48.715Z,70.72
2022-12-11T23:32:51.836Z,70.75
2022-12-11T23:33:54.785Z,70.78
2022-12-11T23:34:57.866Z,70.83
2022-12-11T23:36:01.176Z,70.84
2022-12-11T23:37:04.457Z,70.93
2022-12-11T23:38:07.726Z,70.92
2022-12-11T23:39:10.824Z,70.86
2022-12-11T23:40:14.058Z,70.87
2022-12-11T23:41:17.263Z,70.76
2022-12-11T23:42:20.406Z,70.78
2022-12-11T23:43:23.449Z,70.65
2022-12-11T23:44:26.393Z,70.73
2022-12-11T23:45:29.567Z,70.65
2022-12-11T23:46:33.853Z,70.59
2022-12-11T23:47:37.070Z,70.56
2022-12-11T23:48:41.541Z,70.57
2022-12-11T23:49:44.727Z,70.37
2022-12-11T23:50:47.855Z,70.29
2022-12-11T23:51:51.094Z,70.29
2022-12-11T23:52:54.174Z,70.32
2022-12-11T23:53:57.350Z,70.26
2022-12-11T23:55:00.496Z,70.19
2022-12-11T23:56:07.201Z,70.27
2022-12-11T23:57:10.503Z,70.11
2022-12-11T23:58:13.815Z,70.02
2022-12-11T23:59:17.045Z,70.02
